createdAt,value
2022-10-17T00:00:40.223Z,101471.53
2022-10-17T00:03:07.382Z,101473.50
2022-10-17T00:05:34.650Z,101479.69
2022-10-17T00:08:01.294Z,101482.47
2022-10-17T00:10:27.961Z,101480.81
2022-10-17T00:12:54.543Z,101472.19
2022-10-17T00:15:22.719Z,101477.25
2022-10-17T00:17:49.712Z,101485.06
2022-10-17T00:20:17.072Z,101475.63
2022-10-17T00:22:44.891Z,101481.00
2022-10-17T00:25:12.197Z,101462.94
2022-10-17T00:27:40.450Z,101453.47
2022-10-17T00:30:10.129Z,101450.06
2022-10-17T00:32:36.814Z,101445.84
2022-10-17T00:35:03.527Z,101447.81
2022-10-17T00:37:31.941Z,101448.59
2022-10-17T00:39:59.009Z,101452.19
2022-10-17T00:42:27.028Z,101446.16
2022-10-17T00:45:01.741Z,101442.72
2022-10-17T00:47:29.560Z,101447.94
2022-10-17T00:49:56.347Z,101450.72
2022-10-17T00:52:27.020Z,101450.25
2022-10-17T00:55:02.600Z,101441.63
2022-10-17T00:57:31.818Z,101438.22
2022-10-17T01:00:02.190Z,101438.03
2022-10-17T01:02:29.082Z,101427.44
2022-10-17T01:04:59.600Z,101421.75
2022-10-17T01:07:33.148Z,101427.16
2022-10-17T01:10:04.143Z,101424.69
2022-10-17T01:13:16.035Z,101415.25
2022-10-17T01:15:57.929Z,101417.03
2022-10-17T01:18:32.300Z,101408.41
2022-10-17T01:21:23.317Z,101405.81
2022-10-17T01:24:21.433Z,101406.63
2022-10-17T01:27:06.775Z,101407.25
2022-10-17T01:30:07.241Z,101418.69
2022-10-17T01:32:43.012Z,101423.91
2022-10-17T01:35:36.569Z,101418.50
2022-10-17T01:38:19.284Z,101422.91
2022-10-17T01:40:53.893Z,101423.91
2022-10-17T01:43:33.580Z,101416.09
2022-10-17T01:46:18.062Z,101413.47
2022-10-17T01:48:46.453Z,101404.66
2022-10-17T01:51:20.522Z,101406.13
2022-10-17T01:53:59.267Z,101406.13
2022-10-17T01:56:30.139Z,101395.69
2022-10-17T01:59:10.855Z,101400.91
2022-10-17T02:01:39.166Z,101388.69
2022-10-17T02:04:09.016Z,101382.47
2022-10-17T02:06:36.960Z,101374.84
2022-10-17T02:09:26.166Z,101380.88
2022-10-17T02:11:57.853Z,101373.06
2022-10-17T02:14:41.705Z,101380.88
2022-10-17T02:17:21.554Z,101376.63
2022-10-17T02:20:10.557Z,101377.44
2022-10-17T02:22:47.670Z,101382.84
2022-10-17T02:25:40.206Z,101378.59
2022-10-17T02:28:06.755Z,101382.03
2022-10-17T02:31:05.502Z,101376.63
2022-10-17T02:33:37.548Z,101372.41
2022-10-17T02:36:11.251Z,101366.38
2022-10-17T02:38:39.348Z,101364.94
2022-10-17T02:41:11.176Z,101356.16
2022-10-17T02:43:39.025Z,101372.56
2022-10-17T02:46:07.964Z,101354.00
2022-10-17T02:48:40.417Z,101354.63
2022-10-17T02:51:25.539Z,101357.06
2022-10-17T02:54:10.943Z,101358.38
2022-10-17T02:56:42.760Z,101350.56
2022-10-17T02:59:12.467Z,101369.63
2022-10-17T03:01:39.464Z,101367.78
2022-10-17T03:04:12.072Z,101368.78
2022-10-17T03:06:40.632Z,101366.00
2022-10-17T03:09:08.077Z,101368.44
2022-10-17T03:11:34.695Z,101371.84
2022-10-17T03:14:01.356Z,101370.06
2022-10-17T03:16:28.128Z,101363.06
2022-10-17T03:18:54.686Z,101362.25
2022-10-17T03:21:21.932Z,101365.50
2022-10-17T03:23:48.488Z,101361.75
2022-10-17T03:26:15.105Z,101359.59
2022-10-17T03:28:41.790Z,101360.25
2022-10-17T03:31:15.468Z,101364.59
2022-10-17T03:33:42.679Z,101369.28
2022-10-17T03:36:15.166Z,101360.50
2022-10-17T03:38:43.816Z,101355.28
2022-10-17T03:41:10.833Z,101354.47
2022-10-17T03:43:38.493Z,101367.16
2022-10-17T03:46:06.104Z,101363.75
2022-10-17T03:48:33.040Z,101366.34
2022-10-17T03:51:07.076Z,101370.75
2022-10-17T03:53:34.432Z,101368.16
2022-10-17T03:56:13.488Z,101370.59
2022-10-17T03:58:40.637Z,101369.78
2022-10-17T04:01:09.311Z,101368.97
2022-10-17T04:03:36.072Z,101377.41
2022-10-17T04:06:04.640Z,101371.38
2022-10-17T04:08:31.372Z,101376.59
2022-10-17T04:10:59.859Z,101384.41
2022-10-17T04:13:27.035Z,101378.41
2022-10-17T04:15:55.159Z,101385.25
2022-10-17T04:18:22.443Z,101377.59
2022-10-17T04:20:49.836Z,101374.00
2022-10-17T04:23:16.540Z,101377.25
2022-10-17T04:25:43.100Z,101365.19
2022-10-17T04:28:09.945Z,101373.03
2022-10-17T04:30:36.539Z,101377.41
2022-10-17T04:33:03.809Z,101367.00
2022-10-17T04:35:30.457Z,101361.94
2022-10-17T04:37:57.096Z,101365.38
2022-10-17T04:40:23.602Z,101362.78
2022-10-17T04:42:50.375Z,101351.53
2022-10-17T04:45:16.992Z,101351.53
2022-10-17T04:47:43.711Z,101354.94
2022-10-17T04:50:10.243Z,101348.72
2022-10-17T04:52:39.605Z,101346.94
2022-10-17T04:55:06.954Z,101347.59
2022-10-17T04:57:37.636Z,101355.22
2022-10-17T05:00:04.813Z,101359.28
2022-10-17T05:02:31.611Z,101345.09
2022-10-17T05:04:58.702Z,101349.78
2022-10-17T05:07:25.242Z,101364.28
2022-10-17T05:09:51.806Z,101357.28
2022-10-17T05:12:18.384Z,101357.28
2022-10-17T05:14:44.912Z,101357.09
2022-10-17T05:17:11.630Z,101357.91
2022-10-17T05:19:39.141Z,101351.09
2022-10-17T05:22:05.720Z,101358.09
2022-10-17T05:24:32.347Z,101370.94
2022-10-17T05:26:59.072Z,101362.78
2022-10-17T05:29:25.830Z,101379.72
2022-10-17T05:31:52.542Z,101380.34
2022-10-17T05:34:19.304Z,101379.81
2022-10-17T05:36:45.963Z,101383.88
2022-10-17T05:39:14.862Z,101383.69
2022-10-17T05:41:41.464Z,101386.97
2022-10-17T05:44:08.065Z,101389.22
2022-10-17T05:46:34.638Z,101395.88
2022-10-17T05:49:01.234Z,101398.97
2022-10-17T05:51:27.856Z,101389.97
2022-10-17T05:53:54.572Z,101392.41
2022-10-17T05:56:21.229Z,101403.28
2022-10-17T05:58:50.872Z,101400.69
2022-10-17T06:01:17.719Z,101409.81
2022-10-17T06:03:44.654Z,101410.78
2022-10-17T06:06:13.237Z,101406.53
2022-10-17T06:08:40.506Z,101403.78
2022-10-17T06:11:09.963Z,101399.84
2022-10-17T06:13:37.900Z,101403.28
2022-10-17T06:16:04.715Z,101405.72
2022-10-17T06:18:33.720Z,101409.59
2022-10-17T06:21:05.734Z,101418.72
2022-10-17T06:23:32.949Z,101422.59
2022-10-17T06:26:01.212Z,101428.44
2022-10-17T06:28:28.057Z,101423.69
2022-10-17T06:30:54.812Z,101424.78
2022-10-17T06:33:23.260Z,101433.72
2022-10-17T06:35:54.385Z,101435.16
2022-10-17T06:38:22.214Z,101434.00
2022-10-17T06:40:49.113Z,101430.19
2022-10-17T06:43:15.878Z,101444.16
2022-10-17T06:45:42.472Z,101438.59
2022-10-17T06:48:09.422Z,101435.94
2022-10-17T06:50:36.061Z,101440.63
2022-10-17T06:53:02.792Z,101442.50
2022-10-17T06:55:30.724Z,101435.94
2022-10-17T06:57:57.404Z,101437.19
2022-10-17T07:00:24.448Z,101441.53
2022-10-17T07:02:50.992Z,101437.53
2022-10-17T07:05:19.229Z,101439.91
2022-10-17T07:07:48.541Z,101439.19
2022-10-17T07:10:17.943Z,101441.91
2022-10-17T07:12:45.978Z,101447.03
2022-10-17T07:15:13.533Z,101448.00
2022-10-17T07:17:40.419Z,101439.88
2022-10-17T07:20:07.765Z,101447.91
2022-10-17T07:22:34.578Z,101450.94
2022-10-17T07:25:01.252Z,101459.88
2022-10-17T07:27:28.245Z,101463.19
2022-10-17T07:29:55.271Z,101470.91
2022-10-17T07:32:21.966Z,101469.00
2022-10-17T07:34:48.661Z,101469.44
2022-10-17T07:37:15.257Z,101472.94
2022-10-17T07:39:41.995Z,101476.44
2022-10-17T07:42:08.747Z,101476.31
2022-10-17T07:44:35.834Z,101489.31
2022-10-17T07:47:02.628Z,101485.50
2022-10-17T07:49:29.576Z,101485.75
2022-10-17T07:51:56.205Z,101477.75
2022-10-17T07:54:22.897Z,101479.00
2022-10-17T07:56:50.878Z,101479.06
2022-10-17T07:59:18.761Z,101487.41
2022-10-17T08:01:45.630Z,101490.88
2022-10-17T08:04:12.510Z,101490.31
2022-10-17T08:06:39.122Z,101496.41
2022-10-17T08:09:06.086Z,101492.47
2022-10-17T08:11:32.703Z,101489.47
2022-10-17T08:13:59.459Z,101504.06
2022-10-17T08:16:25.971Z,101496.88
2022-10-17T08:18:52.551Z,101497.53
2022-10-17T08:21:19.274Z,101512.13
2022-10-17T08:23:45.811Z,101501.47
2022-10-17T08:26:20.044Z,101513.41
2022-10-17T08:28:47.505Z,101505.75
2022-10-17T08:31:19.192Z,101502.34
2022-10-17T08:33:46.517Z,101520.34
2022-10-17T08:36:15.168Z,101518.34
2022-10-17T08:38:43.849Z,101523.38
2022-10-17T08:41:14.909Z,101518.13
2022-10-17T08:44:12.388Z,101538.31
2022-10-17T08:46:41.074Z,101535.06
2022-10-17T08:49:30.997Z,101529.41
2022-10-17T08:52:09.949Z,101530.19
2022-10-17T08:54:46.237Z,101537.03
2022-10-17T08:57:16.083Z,101543.88
2022-10-17T08:59:44.551Z,101563.25
2022-10-17T09:02:26.435Z,101577.19
2022-10-17T09:05:01.707Z,101592.94
2022-10-17T09:07:39.581Z,101605.44
2022-10-17T09:10:21.028Z,101594.31
2022-10-17T09:13:13.508Z,101593.50
2022-10-17T09:15:42.864Z,101584.63
2022-10-17T09:18:44.086Z,101582.63
2022-10-17T09:21:21.910Z,101593.75
2022-10-17T09:24:03.919Z,101602.06
2022-10-17T09:26:40.549Z,101592.78
2022-10-17T09:29:18.842Z,101607.94
2022-10-17T09:34:28.377Z,101619.88
2022-10-17T09:36:55.830Z,101632.41
2022-10-17T09:39:32.288Z,101643.47
2022-10-17T09:42:03.238Z,101664.03
2022-10-17T09:44:47.605Z,101662.19
2022-10-17T09:47:27.123Z,101668.81
2022-10-17T09:49:54.063Z,101662.53
2022-10-17T09:52:28.657Z,101668.75
2022-10-17T09:55:27.456Z,101664.91
2022-10-17T09:58:05.412Z,101661.66
2022-10-17T10:00:37.993Z,101655.59
2022-10-17T10:03:10.811Z,101657.03
2022-10-17T10:05:37.860Z,101654.19
2022-10-17T10:08:16.306Z,101668.13
2022-10-17T10:10:44.108Z,101672.78
2022-10-17T10:13:13.494Z,101670.97
2022-10-17T10:15:53.128Z,101678.84
2022-10-17T10:18:35.906Z,101687.31
2022-10-17T10:21:19.791Z,101693.56
2022-10-17T10:24:09.707Z,101708.53
2022-10-17T10:26:46.972Z,101713.16
2022-10-17T10:29:20.179Z,101760.13
2022-10-17T10:31:48.358Z,101777.03
2022-10-17T10:34:20.699Z,101747.09
2022-10-17T10:37:18.606Z,101775.06
2022-10-17T10:39:56.921Z,101792.38
2022-10-17T10:42:31.039Z,101770.50
2022-10-17T10:45:04.692Z,101731.34
2022-10-17T10:47:33.058Z,101690.56
2022-10-17T10:50:23.057Z,101677.66
2022-10-17T10:53:15.812Z,101661.91
2022-10-17T10:55:50.532Z,101663.34
2022-10-17T10:58:51.269Z,101708.75
2022-10-17T11:01:18.140Z,101713.38
2022-10-17T11:04:12.937Z,101707.94
2022-10-17T11:06:44.158Z,101725.31
2022-10-17T11:09:28.815Z,101727.94
2022-10-17T11:12:07.915Z,101731.53
2022-10-17T11:14:51.764Z,101724.03
2022-10-17T11:17:36.562Z,101731.09
2022-10-17T11:20:09.476Z,101719.81
2022-10-17T11:22:44.418Z,101723.03
2022-10-17T11:25:34.054Z,101719.03
2022-10-17T11:28:04.886Z,101723.09
2022-10-17T11:30:48.838Z,101751.34
2022-10-17T11:33:28.995Z,101748.25
2022-10-17T11:36:01.731Z,101744.03
2022-10-17T11:38:31.900Z,101756.53
2022-10-17T11:41:00.229Z,101761.75
2022-10-17T11:43:40.700Z,101751.28
2022-10-17T11:46:23.967Z,101747.00
2022-10-17T11:48:53.605Z,101738.16
2022-10-17T11:54:15.838Z,101755.03
2022-10-17T11:57:14.683Z,101763.75
2022-10-17T11:59:56.433Z,101770.53
2022-10-17T12:02:35.072Z,101778.31
2022-10-17T12:05:27.896Z,101775.94
2022-10-17T12:08:26.940Z,101764.41
2022-10-17T12:11:07.139Z,101772.13
2022-10-17T12:13:33.699Z,101772.38
2022-10-17T12:16:19.281Z,101772.59
2022-10-17T12:18:46.978Z,101777.94
2022-10-17T12:21:14.704Z,101770.91
2022-10-17T12:23:51.221Z,101784.47
2022-10-17T12:26:26.196Z,101789.53
2022-10-17T12:28:53.402Z,101786.66
2022-10-17T12:31:21.727Z,101794.53
2022-10-17T12:33:51.168Z,101796.53
2022-10-17T12:36:17.627Z,101790.28
2022-10-17T12:38:52.214Z,101789.47
2022-10-17T12:41:39.064Z,101793.13
2022-10-17T12:44:15.155Z,101798.53
2022-10-17T12:47:08.625Z,101793.50
2022-10-17T12:49:49.155Z,101798.75
2022-10-17T12:52:31.385Z,101804.34
2022-10-17T12:55:12.770Z,101801.13
2022-10-17T12:58:05.153Z,101808.38
2022-10-17T13:01:19.138Z,101809.56
2022-10-17T13:03:45.156Z,101818.81
2022-10-17T13:06:21.183Z,101812.94
2022-10-17T13:08:56.863Z,101815.72
2022-10-17T13:11:29.372Z,101818.56
2022-10-17T13:13:58.510Z,101817.72
2022-10-17T13:16:39.471Z,101824.63
2022-10-17T13:19:23.481Z,101817.72
2022-10-17T13:22:06.045Z,101822.16
2022-10-17T13:24:37.486Z,101824.78
2022-10-17T13:27:06.040Z,101826.41
2022-10-17T13:29:33.048Z,101830.69
2022-10-17T13:32:03.859Z,101828.06
2022-10-17T13:34:32.099Z,101823.81
2022-10-17T13:37:03.137Z,101831.47
2022-10-17T13:39:45.621Z,101829.41
2022-10-17T13:42:28.949Z,101836.28
2022-10-17T13:44:57.227Z,101842.38
2022-10-17T13:47:27.292Z,101840.72
2022-10-17T13:49:55.653Z,101843.16
2022-10-17T13:52:25.938Z,101843.97
2022-10-17T13:54:53.865Z,101847.84
2022-10-17T13:57:27.659Z,101850.47
2022-10-17T13:59:58.390Z,101851.91
2022-10-17T14:02:30.848Z,101859.44
2022-10-17T14:05:18.587Z,101863.28
2022-10-17T14:08:16.674Z,101863.13
2022-10-17T14:10:44.775Z,101865.34
2022-10-17T14:13:37.766Z,101862.56
2022-10-17T14:16:04.939Z,101871.63
2022-10-17T14:18:36.367Z,101867.38
2022-10-17T14:21:37.248Z,101860.50
2022-10-17T14:24:11.668Z,101865.13
2022-10-17T14:26:54.646Z,101863.50
2022-10-17T14:29:30.755Z,101860.25
2022-10-17T14:32:02.883Z,101876.16
2022-10-17T14:34:33.927Z,101865.66
2022-10-17T14:37:01.552Z,101872.91
2022-10-17T14:39:29.390Z,101873.47
2022-10-17T14:41:58.733Z,101883.19
2022-10-17T14:44:31.970Z,101879.09
2022-10-17T14:47:30.337Z,101890.59
2022-10-17T14:50:02.716Z,101896.84
2022-10-17T14:52:31.728Z,101904.53
2022-10-17T14:55:00.346Z,101907.78
2022-10-17T14:57:43.764Z,101908.13
2022-10-17T15:00:18.144Z,101917.03
2022-10-17T15:02:46.493Z,101925.06
2022-10-17T15:05:14.410Z,101924.72
2022-10-17T15:07:41.568Z,101926.91
2022-10-17T15:10:42.096Z,101935.41
2022-10-17T15:13:27.337Z,101940.66
2022-10-17T15:15:54.595Z,101934.38
2022-10-17T15:18:21.464Z,101938.66
2022-10-17T15:20:51.990Z,101947.69
2022-10-17T15:23:26.444Z,101951.16
2022-10-17T15:25:53.100Z,101963.25
2022-10-17T15:28:19.903Z,101972.13
2022-10-17T15:30:46.623Z,101974.56
2022-10-17T15:33:13.343Z,101965.88
2022-10-17T15:35:39.983Z,101970.16
2022-10-17T15:38:07.234Z,101965.72
2022-10-17T15:40:33.790Z,101971.94
2022-10-17T15:43:00.454Z,101967.88
2022-10-17T15:45:27.015Z,101980.19
2022-10-17T15:48:01.928Z,101977.75
2022-10-17T15:50:30.540Z,101976.09
2022-10-17T15:52:57.184Z,101971.88
2022-10-17T15:55:24.353Z,101973.84
2022-10-17T15:57:51.253Z,101965.34
2022-10-17T16:00:22.612Z,101973.38
2022-10-17T16:02:51.035Z,101968.66
2022-10-17T16:05:26.078Z,101968.84
2022-10-17T16:07:57.627Z,101959.72
2022-10-17T16:10:25.901Z,101961.72
2022-10-17T16:12:52.978Z,101971.75
2022-10-17T16:15:25.369Z,101973.94
2022-10-17T16:17:53.440Z,101966.59
2022-10-17T16:20:20.728Z,101970.41
2022-10-17T16:22:47.837Z,101979.44
2022-10-17T16:25:21.747Z,101980.63
2022-10-17T16:27:50.939Z,101986.22
2022-10-17T16:30:18.304Z,101987.38
2022-10-17T16:32:45.547Z,101996.41
2022-10-17T16:35:18.249Z,102002.03
2022-10-17T16:37:44.968Z,102001.56
2022-10-17T16:40:11.891Z,102002.72
2022-10-17T16:42:38.613Z,102011.75
2022-10-17T16:45:05.913Z,102014.75
2022-10-17T16:47:32.515Z,102015.28
2022-10-17T16:49:59.413Z,102014.81
2022-10-17T16:52:26.128Z,102027.47
2022-10-17T16:54:53.272Z,102042.09
2022-10-17T16:57:20.410Z,102046.69
2022-10-17T16:59:46.992Z,102056.72
2022-10-17T17:02:16.342Z,102057.06
2022-10-17T17:04:46.809Z,102053.81
2022-10-17T17:07:13.391Z,102065.44
2022-10-17T17:09:40.506Z,102051.88
2022-10-17T17:12:07.134Z,102064.34
2022-10-17T17:14:33.788Z,102071.38
2022-10-17T17:17:00.392Z,102076.16
2022-10-17T17:19:27.027Z,102073.69
2022-10-17T17:21:54.507Z,102073.84
2022-10-17T17:24:21.643Z,102075.81
2022-10-17T17:26:53.614Z,102061.09
2022-10-17T17:29:21.421Z,102068.34
2022-10-17T17:31:48.313Z,102078.13
2022-10-17T17:34:17.978Z,102079.16
2022-10-17T17:36:45.412Z,102076.53
2022-10-17T17:39:13.885Z,102071.44
2022-10-17T17:41:41.653Z,102075.25
2022-10-17T17:44:12.591Z,102077.88
2022-10-17T17:46:43.717Z,102073.59
2022-10-17T17:49:11.845Z,102083.63
2022-10-17T17:51:38.678Z,102077.72
2022-10-17T17:54:05.430Z,102093.59
2022-10-17T17:56:32.409Z,102092.97
2022-10-17T17:59:01.266Z,102088.06
2022-10-17T18:01:31.490Z,102100.50
2022-10-17T18:03:59.142Z,102103.31
2022-10-17T18:06:26.640Z,102097.59
2022-10-17T18:08:55.633Z,102102.03
2022-10-17T18:11:22.568Z,102106.44
2022-10-17T18:13:54.694Z,102103.81
2022-10-17T18:16:21.615Z,102107.41
2022-10-17T18:18:48.469Z,102109.06
2022-10-17T18:21:15.416Z,102111.69
2022-10-17T18:23:45.564Z,102117.75
2022-10-17T18:26:13.182Z,102119.69
2022-10-17T18:31:28.365Z,102119.88
2022-10-17T18:33:57.169Z,102115.44
2022-10-17T18:36:26.141Z,102116.28
2022-10-17T18:38:54.107Z,102120.69
2022-10-17T18:41:24.948Z,102123.31
2022-10-17T18:43:53.457Z,102129.38
2022-10-17T18:46:30.328Z,102125.09
2022-10-17T18:48:57.477Z,102131.34
2022-10-17T18:51:25.529Z,102133.97
2022-10-17T18:53:54.837Z,102132.13
2022-10-17T18:56:22.392Z,102137.38
2022-10-17T18:58:49.460Z,102134.09
2022-10-17T19:01:21.625Z,102130.66
2022-10-17T19:03:50.997Z,102131.66
2022-10-17T19:06:20.326Z,102134.44
2022-10-17T19:08:47.857Z,102133.66
2022-10-17T19:11:23.176Z,102139.84
2022-10-17T19:13:50.676Z,102124.97
2022-10-17T19:16:22.586Z,102134.63
2022-10-17T19:18:54.391Z,102140.69
2022-10-17T19:21:22.045Z,102145.72
2022-10-17T19:23:55.560Z,102143.28
2022-10-17T19:26:23.410Z,102133.78
2022-10-17T19:28:53.452Z,102146.09
2022-10-17T19:31:26.535Z,102149.69
2022-10-17T19:33:55.378Z,102141.81
2022-10-17T19:36:26.378Z,102142.78
2022-10-17T19:38:56.504Z,102140.34
2022-10-17T19:41:23.867Z,102145.28
2022-10-17T19:43:50.769Z,102145.41
2022-10-17T19:46:22.655Z,102152.94
2022-10-17T19:48:51.047Z,102157.34
2022-10-17T19:51:20.770Z,102157.34
2022-10-17T19:53:47.689Z,102157.34
2022-10-17T19:56:18.527Z,102162.94
2022-10-17T19:58:47.032Z,102169.81
2022-10-17T20:01:18.739Z,102170.63
2022-10-17T20:03:45.663Z,102173.44
2022-10-17T20:06:12.967Z,102177.84
2022-10-17T20:08:40.470Z,102181.91
2022-10-17T20:11:11.030Z,102192.72
2022-10-17T20:13:38.455Z,102197.97
2022-10-17T20:16:06.589Z,102203.00
2022-10-17T20:18:34.003Z,102209.91
2022-10-17T20:21:06.263Z,102213.47
2022-10-17T20:23:33.100Z,102210.22
2022-10-17T20:26:13.511Z,102221.84
2022-10-17T20:28:48.858Z,102219.22
2022-10-17T20:31:16.600Z,102221.19
2022-10-17T20:33:43.286Z,102221.19
2022-10-17T20:36:13.339Z,102223.97
2022-10-17T20:38:40.176Z,102226.78
2022-10-17T20:41:09.291Z,102228.72
2022-10-17T20:43:36.846Z,102235.91
2022-10-17T20:46:21.968Z,102235.13
2022-10-17T20:48:54.474Z,102231.03
2022-10-17T20:51:21.819Z,102234.63
2022-10-17T20:53:48.808Z,102238.25
2022-10-17T20:56:21.697Z,102244.28
2022-10-17T20:59:10.895Z,102243.47
2022-10-17T21:01:37.512Z,102240.19
2022-10-17T21:06:54.026Z,102249.22
2022-10-17T21:09:21.927Z,102251.97
2022-10-17T21:11:51.502Z,102245.25
2022-10-17T21:14:18.688Z,102254.13
2022-10-17T21:16:45.504Z,102254.91
2022-10-17T21:19:13.064Z,102252.47
2022-10-17T21:21:42.703Z,102251.63
2022-10-17T21:24:14.468Z,102261.44
2022-10-17T21:26:42.982Z,102258.19
2022-10-17T21:29:11.874Z,102269.66
2022-10-17T21:31:40.298Z,102265.38
2022-10-17T21:34:09.388Z,102276.81
2022-10-17T21:36:36.222Z,102270.78
2022-10-17T21:39:03.580Z,102266.69
2022-10-17T21:41:31.431Z,102270.28
2022-10-17T21:44:07.159Z,102276.66
2022-10-17T21:46:34.102Z,102270.59
2022-10-17T21:49:01.323Z,102267.50
2022-10-17T21:51:28.644Z,102263.41
2022-10-17T21:53:56.780Z,102256.56
2022-10-17T21:56:28.073Z,102267.16
2022-10-17T21:58:55.426Z,102276.97
2022-10-17T22:01:25.131Z,102268.47
2022-10-17T22:03:55.071Z,102272.75
2022-10-17T22:06:39.139Z,102273.72
2022-10-17T22:09:12.395Z,102270.44
2022-10-17T22:11:39.211Z,102271.38
2022-10-17T22:14:08.249Z,102281.00
2022-10-17T22:16:35.287Z,102276.78
2022-10-17T22:19:06.126Z,102279.56
2022-10-17T22:21:35.090Z,102278.75
2022-10-17T22:24:05.089Z,102272.03
2022-10-17T22:26:33.969Z,102286.06
2022-10-17T22:29:00.773Z,102288.03
2022-10-17T22:31:27.624Z,102286.41
2022-10-17T22:33:54.360Z,102290.81
2022-10-17T22:36:21.366Z,102288.19
2022-10-17T22:38:48.511Z,102284.59
2022-10-17T22:41:15.091Z,102282.81
2022-10-17T22:43:41.691Z,102278.41
2022-10-17T22:46:08.482Z,102284.28
2022-10-17T22:48:35.087Z,102283.97
2022-10-17T22:51:01.840Z,102276.94
2022-10-17T22:53:29.819Z,102287.25
2022-10-17T22:56:02.072Z,102280.22
2022-10-17T22:58:31.162Z,102284.34
2022-10-17T23:00:58.558Z,102288.44
2022-10-17T23:03:29.023Z,102286.47
2022-10-17T23:05:56.636Z,102279.09
2022-10-17T23:08:24.051Z,102281.41
2022-10-17T23:10:50.951Z,102281.88
2022-10-17T23:13:18.723Z,102285.16
2022-10-17T23:15:45.968Z,102289.25
2022-10-17T23:18:12.746Z,102288.09
2022-10-17T23:20:39.393Z,102284.34
2022-10-17T23:23:05.969Z,102289.41
2022-10-17T23:25:35.731Z,102291.06
2022-10-17T23:28:02.668Z,102281.25
2022-10-17T23:30:31.731Z,102284.50
2022-10-17T23:32:58.395Z,102280.75
2022-10-17T23:35:25.099Z,102282.41
2022-10-17T23:37:51.633Z,102278.00
2022-10-17T23:40:18.226Z,102288.28
2022-10-17T23:42:45.236Z,102284.69
2022-10-17T23:45:12.485Z,102282.88
2022-10-17T23:47:38.995Z,102275.03
2022-10-17T23:50:06.616Z,102275.84
2022-10-17T23:52:33.407Z,102289.91
2022-10-17T23:55:00.281Z,102296.78
2022-10-17T23:57:26.792Z,102294.19
2022-10-17T23:59:53.431Z,102286.97
